createdAt,value
2023-05-20T00:00:09.776Z,101588.03
2023-05-20T00:02:36.672Z,101491.78
2023-05-20T00:05:03.761Z,101552.25
2023-05-20T00:07:30.324Z,101526.84
2023-05-20T00:09:56.815Z,101562.31
2023-05-20T00:12:23.294Z,101552.56
2023-05-20T00:14:49.779Z,101511.84
2023-05-20T00:17:16.322Z,101519.56
2023-05-20T00:19:42.857Z,101574.19
2023-05-20T00:22:09.480Z,101520.66
2023-05-20T00:24:36.003Z,101522.78
2023-05-20T00:27:02.786Z,101564.47
2023-05-20T00:29:29.286Z,101566.75
2023-05-20T00:31:55.912Z,101568.78
2023-05-20T00:34:22.517Z,101457.88
2023-05-20T00:36:49.015Z,101567.72
2023-05-20T00:39:15.608Z,101564.75
2023-05-20T00:41:42.147Z,101547.22
2023-05-20T00:44:08.761Z,101551.19
2023-05-20T00:46:35.591Z,101560.47
2023-05-20T00:49:02.321Z,101532.31
2023-05-20T00:51:28.881Z,101500.44
2023-05-20T00:53:56.206Z,101571.78
2023-05-20T00:56:23.327Z,101570.22
2023-05-20T00:58:50.964Z,101565.41
2023-05-20T01:01:17.501Z,101545.38
2023-05-20T01:03:44.180Z,101544.97
2023-05-20T01:06:10.948Z,101517.00
2023-05-20T01:08:37.500Z,101519.13
2023-05-20T01:11:09.696Z,101553.13
2023-05-20T01:13:43.161Z,101515.88
2023-05-20T01:16:10.624Z,101543.97
2023-05-20T01:18:39.392Z,101502.69
2023-05-20T01:21:08.314Z,101554.44
2023-05-20T01:23:39.945Z,101555.66
2023-05-20T01:26:06.817Z,101544.22
2023-05-20T01:28:34.932Z,101530.56
2023-05-20T01:31:04.141Z,101530.69
2023-05-20T01:33:31.596Z,101560.88
2023-05-20T01:35:58.835Z,101504.91
2023-05-20T01:38:26.191Z,101546.94
2023-05-20T01:40:53.785Z,101545.25
2023-05-20T01:43:21.176Z,101522.81
2023-05-20T01:45:47.766Z,101551.66
2023-05-20T01:48:14.566Z,101502.34
2023-05-20T01:50:41.166Z,101535.38
2023-05-20T01:53:10.324Z,101501.22
2023-05-20T01:55:37.302Z,101510.59
2023-05-20T01:58:03.856Z,101439.13
2023-05-20T02:00:31.798Z,101496.97
2023-05-20T02:02:58.368Z,101525.34
2023-05-20T02:05:24.931Z,101539.47
2023-05-20T02:07:51.512Z,101475.53
2023-05-20T02:10:17.976Z,101454.22
2023-05-20T02:12:44.598Z,101498.88
2023-05-20T02:15:11.299Z,101545.13
2023-05-20T02:17:38.014Z,101544.28
2023-05-20T02:20:06.607Z,101527.06
2023-05-20T02:22:33.326Z,101527.75
2023-05-20T02:24:59.879Z,101493.06
2023-05-20T02:27:26.349Z,101523.53
2023-05-20T02:29:52.980Z,101484.53
2023-05-20T02:32:20.695Z,101552.81
2023-05-20T02:34:47.282Z,101538.06
2023-05-20T02:37:13.758Z,101537.78
2023-05-20T02:39:40.240Z,101488.34
2023-05-20T02:42:06.783Z,101501.91
2023-05-20T02:44:33.293Z,101501.09
2023-05-20T02:46:59.821Z,101476.22
2023-05-20T02:49:26.311Z,101453.25
2023-05-20T02:51:52.816Z,101514.19
2023-05-20T02:54:19.330Z,101540.16
2023-05-20T02:56:45.857Z,101538.91
2023-05-20T02:59:12.334Z,101515.84
2023-05-20T03:01:40.467Z,101543.00
2023-05-20T03:04:07.280Z,101494.25
2023-05-20T03:06:34.081Z,101498.34
2023-05-20T03:09:00.588Z,101490.09
2023-05-20T03:11:27.072Z,101514.34
2023-05-20T03:13:53.650Z,101470.31
2023-05-20T03:16:20.235Z,101490.19
2023-05-20T03:18:46.785Z,101503.13
2023-05-20T03:21:13.310Z,101536.91
2023-05-20T03:23:39.789Z,101468.53
2023-05-20T03:26:06.821Z,101530.72
2023-05-20T03:28:33.348Z,101484.00
2023-05-20T03:30:59.926Z,101418.94
2023-05-20T03:33:26.948Z,101463.50
2023-05-20T03:35:53.557Z,101486.34
2023-05-20T03:38:20.229Z,101485.31
2023-05-20T03:40:46.725Z,101536.53
2023-05-20T03:43:13.181Z,101471.47
2023-05-20T03:45:39.781Z,101491.91
2023-05-20T03:48:07.026Z,101517.03
2023-05-20T03:50:33.604Z,101496.91
2023-05-20T03:53:00.447Z,101495.56
2023-05-20T03:55:27.842Z,101529.88
2023-05-20T03:57:54.917Z,101515.59
2023-05-20T04:00:21.557Z,101535.34
2023-05-20T04:02:48.169Z,101494.09
2023-05-20T04:05:14.804Z,101479.56
2023-05-20T04:07:41.327Z,101526.63
2023-05-20T04:10:08.541Z,101469.97
2023-05-20T04:12:36.685Z,101479.38
2023-05-20T04:15:03.416Z,101516.84
2023-05-20T04:17:31.179Z,101452.38
2023-05-20T04:19:59.632Z,101459.63
2023-05-20T04:22:26.759Z,101484.81
2023-05-20T04:24:53.384Z,101478.88
2023-05-20T04:27:20.340Z,101524.59
2023-05-20T04:29:47.423Z,101443.41
2023-05-20T04:32:15.678Z,101513.44
2023-05-20T04:34:42.232Z,101440.66
2023-05-20T04:37:09.636Z,101472.50
2023-05-20T04:39:36.433Z,101386.44
2023-05-20T04:42:03.637Z,101450.38
2023-05-20T04:44:30.556Z,101452.53
2023-05-20T04:46:59.857Z,101513.53
2023-05-20T04:49:26.842Z,101515.44
2023-05-20T04:51:55.425Z,101473.72
2023-05-20T04:54:22.156Z,101502.19
2023-05-20T04:56:48.655Z,101401.63
2023-05-20T04:59:15.165Z,101516.47
2023-05-20T05:01:41.696Z,101486.47
2023-05-20T05:04:08.275Z,101464.38
2023-05-20T05:06:34.858Z,101473.81
2023-05-20T05:09:01.353Z,101479.66
2023-05-20T05:11:27.845Z,101412.66
2023-05-20T05:13:55.200Z,101489.00
2023-05-20T05:16:21.725Z,101482.75
2023-05-20T05:18:48.363Z,101470.88
2023-05-20T05:21:14.881Z,101481.34
2023-05-20T05:23:42.587Z,101482.91
2023-05-20T05:26:09.209Z,101488.69
2023-05-20T05:28:35.724Z,101479.22
2023-05-20T05:31:02.380Z,101391.88
2023-05-20T05:33:29.218Z,101515.03
2023-05-20T05:35:59.116Z,101447.56
2023-05-20T05:38:26.077Z,101492.13
2023-05-20T05:40:52.995Z,101470.75
2023-05-20T05:43:19.528Z,101488.53
2023-05-20T05:45:46.032Z,101490.97
2023-05-20T05:48:12.622Z,101484.72
2023-05-20T05:50:39.185Z,101392.94
2023-05-20T05:53:05.734Z,101450.81
2023-05-20T05:55:35.637Z,101506.03
2023-05-20T05:58:02.569Z,101471.63
2023-05-20T06:00:29.120Z,101479.72
2023-05-20T06:02:56.069Z,101419.06
2023-05-20T06:05:22.862Z,101477.38
2023-05-20T06:07:49.382Z,101442.00
2023-05-20T06:10:16.034Z,101438.22
2023-05-20T06:12:42.554Z,101469.13
2023-05-20T06:15:09.660Z,101455.78
2023-05-20T06:17:36.276Z,101498.84
2023-05-20T06:20:03.037Z,101489.84
2023-05-20T06:22:29.734Z,101382.34
2023-05-20T06:24:56.799Z,101412.22
2023-05-20T06:27:23.304Z,101483.47
2023-05-20T06:29:49.887Z,101446.91
2023-05-20T06:32:16.387Z,101470.06
2023-05-20T06:34:43.151Z,101453.84
2023-05-20T06:37:09.640Z,101337.56
2023-05-20T06:39:36.260Z,101459.28
2023-05-20T06:42:03.025Z,101448.59
2023-05-20T06:44:31.481Z,101450.09
2023-05-20T06:46:58.019Z,101495.47
2023-05-20T06:49:24.835Z,101436.78
2023-05-20T06:51:51.377Z,101483.72
2023-05-20T06:54:17.863Z,101431.50
2023-05-20T06:56:44.566Z,101483.72
2023-05-20T06:59:11.367Z,101477.28
2023-05-20T07:01:37.866Z,101384.47
2023-05-20T07:04:04.721Z,101410.41
2023-05-20T07:06:31.588Z,101456.81
2023-05-20T07:08:58.136Z,101447.09
2023-05-20T07:11:24.722Z,101466.41
2023-05-20T07:13:51.229Z,101454.16
2023-05-20T07:16:17.880Z,101423.38
2023-05-20T07:18:44.542Z,101471.09
2023-05-20T07:21:11.085Z,101459.53
2023-05-20T07:23:37.622Z,101450.78
2023-05-20T07:26:04.390Z,101430.44
2023-05-20T07:28:30.949Z,101412.13
2023-05-20T07:30:58.021Z,101460.13
2023-05-20T07:33:24.765Z,101409.72
2023-05-20T07:35:52.037Z,101460.91
2023-05-20T07:38:18.588Z,101405.97
2023-05-20T07:40:45.442Z,101408.00
2023-05-20T07:43:11.933Z,101373.41
2023-05-20T07:45:38.855Z,101350.00
2023-05-20T07:48:05.814Z,101411.69
2023-05-20T07:50:33.209Z,101442.19
2023-05-20T07:52:59.749Z,101438.41
2023-05-20T07:55:26.380Z,101459.81
2023-05-20T07:57:52.885Z,101448.25
2023-05-20T08:00:19.553Z,101387.13
2023-05-20T08:02:46.331Z,101384.78
2023-05-20T08:05:13.187Z,101370.31
2023-05-20T08:07:39.717Z,101435.88
2023-05-20T08:10:06.928Z,101403.22
2023-05-20T08:12:33.569Z,101387.44
2023-05-20T08:15:00.207Z,101361.59
2023-05-20T08:17:26.706Z,101456.50
2023-05-20T08:19:56.763Z,101426.47
2023-05-20T08:22:23.291Z,101437.31
2023-05-20T08:24:49.805Z,101369.16
2023-05-20T08:27:16.305Z,101452.97
2023-05-20T08:29:47.188Z,101436.97
2023-05-20T08:32:13.676Z,101418.47
2023-05-20T08:34:40.171Z,101413.88
2023-05-20T08:37:06.712Z,101404.06
2023-05-20T08:39:33.247Z,101412.72
2023-05-20T08:42:00.207Z,101412.72
2023-05-20T08:44:28.100Z,101397.72
2023-05-20T08:46:54.918Z,101426.16
2023-05-20T08:49:21.867Z,101401.66
2023-05-20T08:51:49.208Z,101449.72
2023-05-20T08:54:16.900Z,101402.03
2023-05-20T08:56:44.042Z,101415.78
2023-05-20T08:59:10.548Z,101446.06
2023-05-20T09:01:45.508Z,101436.38
2023-05-20T09:04:12.334Z,101438.28
2023-05-20T09:06:46.908Z,101380.75
2023-05-20T09:09:14.110Z,101437.66
2023-05-20T09:11:41.629Z,101437.50
2023-05-20T09:14:08.798Z,101441.03
2023-05-20T09:16:35.561Z,101370.84
2023-05-20T09:19:02.206Z,101408.53
2023-05-20T09:21:29.195Z,101433.75
2023-05-20T09:23:59.073Z,101406.91
2023-05-20T09:26:30.057Z,101426.09
2023-05-20T09:28:57.340Z,101373.97
2023-05-20T09:31:36.521Z,101395.47
2023-05-20T09:34:03.345Z,101386.25
2023-05-20T09:36:34.318Z,101425.00
2023-05-20T09:39:05.741Z,101425.59
2023-05-20T09:41:39.643Z,101430.47
2023-05-20T09:44:09.503Z,101354.94
2023-05-20T09:46:36.496Z,101423.59
2023-05-20T09:49:03.049Z,101393.09
2023-05-20T09:51:29.852Z,101429.34
2023-05-20T09:53:57.156Z,101358.13
2023-05-20T09:56:24.142Z,101431.94
2023-05-20T09:58:51.138Z,101384.09
2023-05-20T10:01:17.776Z,101343.97
2023-05-20T10:03:44.882Z,101413.41
2023-05-20T10:06:11.455Z,101405.19
2023-05-20T10:08:41.453Z,101407.34
2023-05-20T10:11:14.788Z,101403.06
2023-05-20T10:13:45.416Z,101396.44
2023-05-20T10:16:39.599Z,101390.78
2023-05-20T10:19:32.442Z,101382.75
2023-05-20T10:22:08.703Z,101337.00
2023-05-20T10:24:42.170Z,101379.88
2023-05-20T10:27:10.519Z,101366.09
2023-05-20T10:29:43.728Z,101368.22
2023-05-20T10:32:10.428Z,101365.88
2023-05-20T10:34:48.039Z,101330.22
2023-05-20T10:37:28.305Z,101336.50
2023-05-20T10:40:11.091Z,101362.66
2023-05-20T10:42:37.864Z,101334.22
2023-05-20T10:45:05.246Z,101357.16
2023-05-20T10:47:32.171Z,101322.28
2023-05-20T10:49:59.209Z,101313.81
2023-05-20T10:52:25.740Z,101319.75
2023-05-20T10:54:59.440Z,101313.50
2023-05-20T10:57:27.377Z,101312.56
2023-05-20T10:59:54.489Z,101303.03
2023-05-20T11:02:28.764Z,101345.16
2023-05-20T11:04:58.710Z,101342.53
2023-05-20T11:07:29.592Z,101330.63
2023-05-20T11:09:57.476Z,101324.16
2023-05-20T11:12:25.843Z,101335.03
2023-05-20T11:14:52.688Z,101329.19
2023-05-20T11:17:19.783Z,101350.75
2023-05-20T11:19:47.350Z,101344.09
2023-05-20T11:22:13.966Z,101337.06
2023-05-20T11:24:40.851Z,101301.59
2023-05-20T11:27:07.796Z,101332.78
2023-05-20T11:29:35.171Z,101328.09
2023-05-20T11:32:01.724Z,101311.22
2023-05-20T11:34:36.370Z,101327.91
2023-05-20T11:37:03.164Z,101292.16
2023-05-20T11:39:30.749Z,101298.63
2023-05-20T11:41:57.952Z,101280.00
2023-05-20T11:44:25.415Z,101311.88
2023-05-20T11:46:52.200Z,101312.91
2023-05-20T11:49:18.708Z,101311.28
2023-05-20T11:51:45.398Z,101315.72
2023-05-20T11:54:11.992Z,101271.50
2023-05-20T11:56:39.285Z,101308.91
2023-05-20T11:59:06.638Z,101305.63
2023-05-20T12:01:40.769Z,101244.78
2023-05-20T12:04:08.404Z,101299.69
2023-05-20T12:06:37.044Z,101300.88
2023-05-20T12:09:08.448Z,101306.72
2023-05-20T12:11:36.443Z,101289.94
2023-05-20T12:14:04.012Z,101247.88
2023-05-20T12:16:31.800Z,101223.84
2023-05-20T12:18:58.445Z,101246.06
2023-05-20T12:21:24.991Z,101289.44
2023-05-20T12:23:57.463Z,101270.59
2023-05-20T12:26:29.483Z,101229.28
2023-05-20T12:28:56.539Z,101283.25
2023-05-20T12:31:23.124Z,101141.00
2023-05-20T12:33:49.774Z,101218.31
2023-05-20T12:36:16.457Z,101262.38
2023-05-20T12:38:43.186Z,101240.06
2023-05-20T12:41:09.687Z,101275.91
2023-05-20T12:43:37.482Z,101253.50
2023-05-20T12:46:04.572Z,101161.97
2023-05-20T12:48:31.175Z,101282.00
2023-05-20T12:50:57.816Z,101243.66
2023-05-20T12:53:24.359Z,101213.75
2023-05-20T12:55:51.030Z,101199.41
2023-05-20T12:58:17.575Z,101245.38
2023-05-20T13:00:44.138Z,101270.72
2023-05-20T13:03:11.198Z,101203.19
2023-05-20T13:05:38.008Z,101211.72
2023-05-20T13:08:04.760Z,101218.75
2023-05-20T13:10:31.489Z,101225.94
2023-05-20T13:12:58.091Z,101255.25
2023-05-20T13:15:24.824Z,101217.50
2023-05-20T13:17:51.378Z,101231.16
2023-05-20T13:20:19.767Z,101184.59
2023-05-20T13:22:46.609Z,101185.88
2023-05-20T13:25:13.150Z,101244.44
2023-05-20T13:27:40.454Z,101189.66
2023-05-20T13:30:08.057Z,101200.31
2023-05-20T13:32:34.736Z,101208.75
2023-05-20T13:35:01.278Z,101203.72
2023-05-20T13:37:27.767Z,101183.97
2023-05-20T13:39:54.305Z,101240.28
2023-05-20T13:42:21.680Z,101216.53
2023-05-20T13:44:48.186Z,101245.97
2023-05-20T13:47:14.830Z,101223.75
2023-05-20T13:49:41.357Z,101216.16
2023-05-20T13:52:08.008Z,101178.63
2023-05-20T13:54:34.665Z,101216.03
2023-05-20T13:57:01.833Z,101215.16
2023-05-20T13:59:28.470Z,101212.31
2023-05-20T14:01:55.068Z,101180.78
2023-05-20T14:04:22.290Z,101118.19
2023-05-20T14:06:48.955Z,101215.28
2023-05-20T14:09:15.792Z,101162.03
2023-05-20T14:11:42.444Z,101140.81
2023-05-20T14:14:08.983Z,101204.44
2023-05-20T14:16:36.037Z,101135.09
2023-05-20T14:19:02.572Z,101180.16
2023-05-20T14:21:29.147Z,101201.97
2023-05-20T14:23:55.964Z,101100.09
2023-05-20T14:26:22.840Z,101190.78
2023-05-20T14:28:49.381Z,101143.78
2023-05-20T14:31:16.044Z,101138.38
2023-05-20T14:33:42.661Z,101151.66
2023-05-20T14:36:09.173Z,101132.59
2023-05-20T14:38:35.752Z,101127.03
2023-05-20T14:41:02.263Z,101139.41
2023-05-20T14:43:28.778Z,101182.97
2023-05-20T14:45:55.350Z,101168.50
2023-05-20T14:48:21.901Z,101152.91
2023-05-20T14:50:49.702Z,101134.31
2023-05-20T14:53:17.174Z,101145.25
2023-05-20T14:55:43.795Z,101073.00
2023-05-20T14:58:10.578Z,101139.25
2023-05-20T15:00:37.256Z,101151.38
2023-05-20T15:03:04.023Z,101106.88
2023-05-20T15:05:30.921Z,101166.56
2023-05-20T15:07:57.657Z,101162.63
2023-05-20T15:10:24.210Z,101147.31
2023-05-20T15:12:51.323Z,101150.88
2023-05-20T15:15:18.138Z,101167.41
2023-05-20T15:17:44.768Z,101109.91
2023-05-20T15:20:12.180Z,101141.13
2023-05-20T15:22:38.897Z,101186.88
2023-05-20T15:25:05.869Z,101136.13
2023-05-20T15:27:32.325Z,101169.31
2023-05-20T15:29:58.855Z,101151.78
2023-05-20T15:32:25.629Z,101171.28
2023-05-20T15:34:52.472Z,101172.31
2023-05-20T15:37:19.008Z,101159.41
2023-05-20T15:39:45.530Z,101171.69
2023-05-20T15:42:18.140Z,101138.88
2023-05-20T15:44:45.697Z,101136.06
2023-05-20T15:47:12.251Z,101100.09
2023-05-20T15:49:38.896Z,101141.91
2023-05-20T15:52:05.710Z,101037.66
2023-05-20T15:54:33.207Z,101146.03
2023-05-20T15:57:00.536Z,101143.06
2023-05-20T15:59:27.055Z,101180.59
2023-05-20T16:01:53.553Z,101108.34
2023-05-20T16:04:20.436Z,101120.72
2023-05-20T16:06:47.218Z,101138.72
2023-05-20T16:09:13.716Z,101097.38
2023-05-20T16:11:40.346Z,101171.06
2023-05-20T16:14:06.828Z,101115.75
2023-05-20T16:16:35.866Z,101113.25
2023-05-20T16:19:02.849Z,101146.75
2023-05-20T16:21:29.401Z,101106.03
2023-05-20T16:23:55.989Z,101164.41
2023-05-20T16:26:22.779Z,101094.56
2023-05-20T16:28:49.330Z,101124.28
2023-05-20T16:31:16.298Z,101111.75
2023-05-20T16:33:42.918Z,101116.53
2023-05-20T16:36:09.454Z,101092.84
2023-05-20T16:38:36.563Z,101134.56
2023-05-20T16:41:03.140Z,101108.06
2023-05-20T16:43:29.701Z,101084.97
2023-05-20T16:45:56.265Z,101148.91
2023-05-20T16:48:22.871Z,101087.66
2023-05-20T16:50:49.550Z,101122.94
2023-05-20T16:53:16.672Z,101162.63
2023-05-20T16:55:43.465Z,101161.78
2023-05-20T16:58:10.140Z,101113.84
2023-05-20T17:00:36.705Z,101154.41
2023-05-20T17:03:03.677Z,101142.47
2023-05-20T17:05:30.192Z,101153.41
2023-05-20T17:07:59.901Z,101125.69
2023-05-20T17:10:28.440Z,101098.22
2023-05-20T17:12:55.447Z,101165.34
2023-05-20T17:15:23.314Z,101164.31
2023-05-20T17:17:50.087Z,101151.66
2023-05-20T17:20:16.816Z,101160.97
2023-05-20T17:22:43.385Z,101159.31
2023-05-20T17:25:10.048Z,101143.16
2023-05-20T17:27:36.562Z,101142.84
2023-05-20T17:30:04.213Z,101185.41
2023-05-20T17:32:30.799Z,101177.31
2023-05-20T17:34:57.369Z,101086.13
2023-05-20T17:37:23.934Z,101157.31
2023-05-20T17:39:50.448Z,101146.72
2023-05-20T17:42:17.000Z,101137.78
2023-05-20T17:44:43.473Z,101166.38
2023-05-20T17:47:10.018Z,101145.19
2023-05-20T17:49:36.612Z,101117.25
2023-05-20T17:52:03.297Z,101132.06
2023-05-20T17:54:29.924Z,101112.19
2023-05-20T17:56:56.393Z,101155.13
2023-05-20T17:59:22.916Z,101167.75
2023-05-20T18:01:49.591Z,101153.63
2023-05-20T18:04:16.718Z,101121.25
2023-05-20T18:06:43.276Z,101164.66
2023-05-20T18:09:09.943Z,101184.19
2023-05-20T18:11:36.497Z,101151.88
2023-05-20T18:14:03.052Z,101184.19
2023-05-20T18:16:30.594Z,101169.72
2023-05-20T18:18:57.433Z,101143.44
2023-05-20T18:21:24.835Z,101109.44
2023-05-20T18:23:51.423Z,101146.81
2023-05-20T18:26:18.238Z,101171.28
2023-05-20T18:28:44.837Z,101136.56
2023-05-20T18:31:11.451Z,101125.56
2023-05-20T18:33:38.069Z,101177.59
2023-05-20T18:36:06.072Z,101139.41
2023-05-20T18:38:32.954Z,101162.25
2023-05-20T18:40:59.800Z,101124.31
2023-05-20T18:43:26.573Z,101158.56
2023-05-20T18:45:53.339Z,101189.38
2023-05-20T18:48:26.784Z,101147.06
2023-05-20T18:50:58.551Z,101194.78
2023-05-20T18:53:25.368Z,101176.78
2023-05-20T18:55:51.868Z,101154.81
2023-05-20T18:58:18.360Z,101170.97
2023-05-20T19:00:44.996Z,101132.06
2023-05-20T19:03:11.576Z,101130.00
2023-05-20T19:05:38.741Z,101191.22
2023-05-20T19:08:05.935Z,101127.63
2023-05-20T19:10:32.755Z,101178.06
2023-05-20T19:12:59.357Z,101194.53
2023-05-20T19:15:26.159Z,101163.88
2023-05-20T19:17:52.965Z,101136.94
2023-05-20T19:20:19.567Z,101173.91
2023-05-20T19:22:46.193Z,101197.25
2023-05-20T19:25:12.693Z,101185.09
2023-05-20T19:27:39.238Z,101132.38
2023-05-20T19:30:07.894Z,101196.81
2023-05-20T19:32:36.684Z,101188.78
2023-05-20T19:35:05.630Z,101191.47
2023-05-20T19:37:32.332Z,101135.84
2023-05-20T19:39:58.823Z,101164.63
2023-05-20T19:42:25.584Z,101202.66
2023-05-20T19:44:53.073Z,101190.25
2023-05-20T19:47:19.736Z,101102.88
2023-05-20T19:49:46.351Z,101152.84
2023-05-20T19:52:12.916Z,101076.97
2023-05-20T19:54:41.659Z,101153.28
2023-05-20T19:57:08.224Z,101049.75
2023-05-20T19:59:36.333Z,101168.56
2023-05-20T20:02:03.985Z,101186.81
2023-05-20T20:04:30.757Z,101156.06
2023-05-20T20:06:57.336Z,101152.13
2023-05-20T20:09:24.066Z,101150.03
2023-05-20T20:11:50.644Z,101198.63
2023-05-20T20:14:17.156Z,101152.56
2023-05-20T20:16:49.353Z,101193.47
2023-05-20T20:19:22.821Z,101157.56
2023-05-20T20:21:52.258Z,101170.94
2023-05-20T20:24:19.686Z,101204.75
2023-05-20T20:26:49.024Z,101201.28
2023-05-20T20:29:15.622Z,101129.38
2023-05-20T20:31:42.187Z,101178.47
2023-05-20T20:34:08.856Z,101184.41
2023-05-20T20:36:35.408Z,101160.06
2023-05-20T20:39:04.940Z,101158.34
2023-05-20T20:41:32.093Z,101137.75
2023-05-20T20:43:59.336Z,101192.41
2023-05-20T20:46:27.526Z,101185.97
2023-05-20T20:48:54.328Z,101115.50
2023-05-20T20:51:21.107Z,101058.81
2023-05-20T20:53:48.648Z,101156.44
2023-05-20T20:56:15.308Z,101174.09
2023-05-20T20:58:41.889Z,101149.00
2023-05-20T21:01:10.073Z,101114.66
2023-05-20T21:03:40.417Z,101181.50
2023-05-20T21:06:07.751Z,101166.38
2023-05-20T21:08:34.662Z,101180.78
2023-05-20T21:11:01.498Z,101181.25
2023-05-20T21:13:28.836Z,101144.97
2023-05-20T21:15:55.818Z,101178.09
2023-05-20T21:18:23.690Z,101124.91
2023-05-20T21:20:52.615Z,101107.50
2023-05-20T21:23:20.218Z,101175.44
2023-05-20T21:25:46.896Z,101171.03
2023-05-20T21:28:13.508Z,101173.66
2023-05-20T21:30:40.093Z,101098.56
2023-05-20T21:33:06.889Z,101126.00
2023-05-20T21:35:33.777Z,101159.59
2023-05-20T21:38:00.376Z,101118.09
2023-05-20T21:40:26.945Z,100952.63
2023-05-20T21:42:53.512Z,101089.44
2023-05-20T21:45:20.001Z,101119.31
2023-05-20T21:47:46.566Z,101145.16
2023-05-20T21:50:13.098Z,101138.97
2023-05-20T21:52:42.532Z,101123.06
2023-05-20T21:55:10.298Z,101085.78
2023-05-20T21:57:37.130Z,101113.84
2023-05-20T22:00:07.950Z,101121.19
2023-05-20T22:02:34.775Z,101144.81
2023-05-20T22:05:01.409Z,101086.97
2023-05-20T22:07:27.987Z,101138.34
2023-05-20T22:09:54.582Z,101092.44
2023-05-20T22:12:21.538Z,101063.31
2023-05-20T22:14:48.232Z,101099.75
2023-05-20T22:17:14.806Z,101121.41
2023-05-20T22:19:41.502Z,101053.59
2023-05-20T22:22:08.001Z,101105.41
2023-05-20T22:24:34.592Z,101105.94
2023-05-20T22:27:01.657Z,101107.44
2023-05-20T22:29:28.204Z,101037.97
2023-05-20T22:31:54.736Z,101103.41
2023-05-20T22:34:21.292Z,101081.00
2023-05-20T22:36:49.063Z,101028.66
2023-05-20T22:39:15.597Z,101095.47
2023-05-20T22:41:42.143Z,101075.38
2023-05-20T22:44:08.742Z,101084.00
2023-05-20T22:46:35.667Z,101032.78
2023-05-20T22:49:02.303Z,101090.50
2023-05-20T22:51:28.801Z,101019.16
2023-05-20T22:53:55.968Z,101035.75
2023-05-20T22:56:23.658Z,100994.47
2023-05-20T22:58:50.371Z,101029.81
2023-05-20T23:01:17.060Z,101060.09
2023-05-20T23:03:44.826Z,101070.09
2023-05-20T23:06:11.603Z,101020.00
2023-05-20T23:08:38.165Z,101031.81
2023-05-20T23:11:04.744Z,101062.31
2023-05-20T23:13:31.406Z,101022.47
2023-05-20T23:15:57.975Z,100999.56
2023-05-20T23:18:24.457Z,101020.53
2023-05-20T23:20:50.968Z,100965.59
2023-05-20T23:23:20.765Z,100962.06
2023-05-20T23:25:54.434Z,101044.25
2023-05-20T23:28:21.252Z,101022.88
2023-05-20T23:30:48.444Z,100979.66
2023-05-20T23:33:17.217Z,100980.13
2023-05-20T23:35:44.228Z,101012.72
2023-05-20T23:38:10.745Z,101002.41
2023-05-20T23:40:37.327Z,101004.84
2023-05-20T23:43:03.837Z,101015.47
2023-05-20T23:45:30.325Z,101018.97
2023-05-20T23:47:56.890Z,100926.78
2023-05-20T23:50:23.429Z,100968.94
2023-05-20T23:52:49.940Z,100963.56
2023-05-20T23:55:18.272Z,100974.97
2023-05-20T23:57:44.829Z,100986.34
